sensor_id;sensor_type;location;lat;lon;timestamp;temperature;humidity
5631;DHT22;2837;50.990;7.124;2023-05-10T05:01:59;14.60;99.90
5631;DHT22;2837;50.990;7.124;2023-05-10T05:04:25;16.10;99.90
5631;DHT22;2837;50.990;7.124;2023-05-10T05:06:50;14.60;99.90
5631;DHT22;2837;50.990;7.124;2023-05-10T05:09:16;14.60;99.90
5631;DHT22;2837;50.990;7.124;2023-05-10T05:11:41;14.70;99.90
5631;DHT22;2837;50.990;7.124;2023-05-10T05:14:07;14.80;99.90
5631;DHT22;2837;50.990;7.124;2023-05-10T05:16:32;14.90;99.90
5631;DHT22;2837;50.990;7.124;2023-05-10T05:18:59;14.70;99.90
5631;DHT22;2837;50.990;7.124;2023-05-10T05:21:24;14.60;99.90
5631;DHT22;2837;50.990;7.124;2023-05-10T05:23:52;14.60;99.90
5631;DHT22;2837;50.990;7.124;2023-05-10T05:26:17;14.60;99.90
5631;DHT22;2837;50.990;7.124;2023-05-10T05:28:43;14.60;99.90
5631;DHT22;2837;50.990;7.124;2023-05-10T05:31:08;14.70;99.90
5631;DHT22;2837;50.990;7.124;2023-05-10T05:33:34;14.60;99.90
5631;DHT22;2837;50.990;7.124;2023-05-10T05:36:01;14.60;99.90
5631;DHT22;2837;50.990;7.124;2023-05-10T05:38:27;14.60;99.90
5631;DHT22;2837;50.990;7.124;2023-05-10T05:40:53;14.60;99.90
5631;DHT22;2837;50.990;7.124;2023-05-10T05:43:18;14.60;99.90
5631;DHT22;2837;50.990;7.124;2023-05-10T05:45:44;14.60;99.90
5631;DHT22;2837;50.990;7.124;2023-05-10T05:48:09;14.60;99.90
5631;DHT22;2837;50.990;7.124;2023-05-10T05:50:35;14.60;99.90
5631;DHT22;2837;50.990;7.124;2023-05-10T05:53:00;14.90;99.90
5631;DHT22;2837;50.990;7.124;2023-05-10T05:55:26;15.10;99.90
5631;DHT22;2837;50.990;7.124;2023-05-10T05:57:52;14.60;99.90
5631;DHT22;2837;50.990;7.124;2023-05-10T06:00:17;14.60;99.90
5631;DHT22;2837;50.990;7.124;2023-05-10T06:02:43;14.70;99.90
5631;DHT22;2837;50.990;7.124;2023-05-10T06:05:09;14.60;99.90
5631;DHT22;2837;50.990;7.124;2023-05-10T06:07:34;14.70;99.90
5631;DHT22;2837;50.990;7.124;2023-05-10T06:10:00;14.60;99.90
5631;DHT22;2837;50.990;7.124;2023-05-10T06:12:25;14.70;99.90
5631;DHT22;2837;50.990;7.124;2023-05-10T06:14:51;15.20;99.90
5631;DHT22;2837;50.990;7.124;2023-05-10T06:17:16;14.60;99.90
5631;DHT22;2837;50.990;7.124;2023-05-10T06:19:42;14.70;99.90
5631;DHT22;2837;50.990;7.124;2023-05-10T06:22:07;14.60;99.90
5631;DHT22;2837;50.990;7.124;2023-05-10T06:24:33;14.90;99.90
5631;DHT22;2837;50.990;7.124;2023-05-10T06:26:58;14.70;99.90
5631;DHT22;2837;50.990;7.124;2023-05-10T06:29:25;14.70;99.90
5631;DHT22;2837;50.990;7.124;2023-05-10T06:31:51;15.20;99.90
5631;DHT22;2837;50.990;7.124;2023-05-10T06:34:17;14.70;99.90
5631;DHT22;2837;50.990;7.124;2023-05-10T06:36:42;15.30;99.90
5631;DHT22;2837;50.990;7.124;2023-05-10T06:39:08;14.70;99.90
5631;DHT22;2837;50.990;7.124;2023-05-10T06:41:33;15.00;99.90
5631;DHT22;2837;50.990;7.124;2023-05-10T06:43:59;14.70;99.90
5631;DHT22;2837;50.990;7.124;2023-05-10T06:46:24;14.70;99.90
5631;DHT22;2837;50.990;7.124;2023-05-10T06:48:50;14.70;99.90
5631;DHT22;2837;50.990;7.124;2023-05-10T06:51:15;14.70;99.90
5631;DHT22;2837;50.990;7.124;2023-05-10T06:53:41;14.80;99.90
5631;DHT22;2837;50.990;7.124;2023-05-10T06:56:06;14.80;99.90
5631;DHT22;2837;50.990;7.124;2023-05-10T06:58:32;14.80;99.90
5631;DHT22;2837;50.990;7.124;2023-05-10T07:01:05;14.80;99.90
5631;DHT22;2837;50.990;7.124;2023-05-10T07:03:31;14.80;99.90
5631;DHT22;2837;50.990;7.124;2023-05-10T07:06:01;14.90;99.90
5631;DHT22;2837;50.990;7.124;2023-05-10T07:08:29;14.80;99.90
5631;DHT22;2837;50.990;7.124;2023-05-10T07:11:02;14.70;99.90
5631;DHT22;2837;50.990;7.124;2023-05-10T07:13:31;14.80;99.90
5631;DHT22;2837;50.990;7.124;2023-05-10T07:15:58;14.80;99.90
5631;DHT22;2837;50.990;7.124;2023-05-10T07:18:24;14.80;99.90
5631;DHT22;2837;50.990;7.124;2023-05-10T07:20:50;14.50;99.90
5631;DHT22;2837;50.990;7.124;2023-05-10T07:23:15;14.70;99.90
5631;DHT22;2837;50.990;7.124;2023-05-10T07:25:45;14.70;99.90
5631;DHT22;2837;50.990;7.124;2023-05-10T07:28:11;14.60;99.90
5631;DHT22;2837;50.990;7.124;2023-05-10T07:30:36;14.60;99.90
5631;DHT22;2837;50.990;7.124;2023-05-10T07:33:02;14.60;99.90
5631;DHT22;2837;50.990;7.124;2023-05-10T07:35:27;14.60;99.90
5631;DHT22;2837;50.990;7.124;2023-05-10T07:37:53;14.60;99.90
5631;DHT22;2837;50.990;7.124;2023-05-10T07:40:18;14.60;99.90
5631;DHT22;2837;50.990;7.124;2023-05-10T07:42:44;14.60;99.90
5631;DHT22;2837;50.990;7.124;2023-05-10T07:45:10;14.60;99.90
5631;DHT22;2837;50.990;7.124;2023-05-10T07:47:35;14.70;99.90
5631;DHT22;2837;50.990;7.124;2023-05-10T07:50:01;15.20;99.90
5631;DHT22;2837;50.990;7.124;2023-05-10T07:52:26;14.70;99.90
5631;DHT22;2837;50.990;7.124;2023-05-10T07:54:52;14.70;99.90
5631;DHT22;2837;50.990;7.124;2023-05-10T07:57:18;14.80;99.90
5631;DHT22;2837;50.990;7.124;2023-05-10T07:59:44;15.10;99.90
5631;DHT22;2837;50.990;7.124;2023-05-10T08:02:10;14.70;99.90
5631;DHT22;2837;50.990;7.124;2023-05-10T08:04:36;14.80;99.90
5631;DHT22;2837;50.990;7.124;2023-05-10T08:07:01;14.80;99.90
5631;DHT22;2837;50.990;7.124;2023-05-10T08:09:27;14.80;99.90
5631;DHT22;2837;50.990;7.124;2023-05-10T08:11:52;14.90;99.90
5631;DHT22;2837;50.990;7.124;2023-05-10T08:14:18;14.90;99.90
5631;DHT22;2837;50.990;7.124;2023-05-10T08:16:43;14.90;99.90
5631;DHT22;2837;50.990;7.124;2023-05-10T08:19:09;15.20;99.90
5631;DHT22;2837;50.990;7.124;2023-05-10T08:21:34;14.90;99.90
5631;DHT22;2837;50.990;7.124;2023-05-10T08:24:01;14.90;99.90
5631;DHT22;2837;50.990;7.124;2023-05-10T08:26:27;14.90;99.90
5631;DHT22;2837;50.990;7.124;2023-05-10T08:28:52;14.90;99.90
5631;DHT22;2837;50.990;7.124;2023-05-10T08:31:18;15.40;99.90
5631;DHT22;2837;50.990;7.124;2023-05-10T08:33:44;14.90;99.90
5631;DHT22;2837;50.990;7.124;2023-05-10T08:36:09;14.90;99.90
5631;DHT22;2837;50.990;7.124;2023-05-10T08:38:35;15.00;99.90
5631;DHT22;2837;50.990;7.124;2023-05-10T08:41:02;15.00;99.90
5631;DHT22;2837;50.990;7.124;2023-05-10T08:43:29;15.10;99.90
5631;DHT22;2837;50.990;7.124;2023-05-10T08:45:55;15.10;99.90
5631;DHT22;2837;50.990;7.124;2023-05-10T08:48:24;15.20;99.90
5631;DHT22;2837;50.990;7.124;2023-05-10T08:50:53;15.20;99.90
5631;DHT22;2837;50.990;7.124;2023-05-10T08:53:20;15.20;99.90
5631;DHT22;2837;50.990;7.124;2023-05-10T08:55:47;15.30;99.90
5631;DHT22;2837;50.990;7.124;2023-05-10T08:58:12;15.40;99.90
5631;DHT22;2837;50.990;7.124;2023-05-10T09:00:38;15.80;99.90
5631;DHT22;2837;50.990;7.124;2023-05-10T09:03:05;15.30;99.90
5631;DHT22;2837;50.990;7.124;2023-05-10T09:05:31;15.40;99.90
5631;DHT22;2837;50.990;7.124;2023-05-10T09:07:57;15.40;99.90
5631;DHT22;2837;50.990;7.124;2023-05-10T09:10:26;15.50;99.90
5631;DHT22;2837;50.990;7.124;2023-05-10T09:12:53;15.40;99.90
5631;DHT22;2837;50.990;7.124;2023-05-10T09:15:21;15.40;99.90
5631;DHT22;2837;50.990;7.124;2023-05-10T09:17:47;15.40;99.90
5631;DHT22;2837;50.990;7.124;2023-05-10T09:20:14;15.40;99.90
5631;DHT22;2837;50.990;7.124;2023-05-10T09:22:39;15.40;99.90
5631;DHT22;2837;50.990;7.124;2023-05-10T09:27:35;15.40;99.90
5631;DHT22;2837;50.990;7.124;2023-05-10T09:30:02;15.40;99.90
5631;DHT22;2837;50.990;7.124;2023-05-10T09:32:39;15.30;99.90
5631;DHT22;2837;50.990;7.124;2023-05-10T09:35:15;15.20;99.90
5631;DHT22;2837;50.990;7.124;2023-05-10T09:37:43;15.20;99.90
5631;DHT22;2837;50.990;7.124;2023-05-10T09:40:16;15.20;99.90
5631;DHT22;2837;50.990;7.124;2023-05-10T09:42:50;15.20;99.90
5631;DHT22;2837;50.990;7.124;2023-05-10T09:45:16;15.20;99.90
5631;DHT22;2837;50.990;7.124;2023-05-10T09:47:41;15.20;99.90
5631;DHT22;2837;50.990;7.124;2023-05-10T09:50:07;15.20;99.90
5631;DHT22;2837;50.990;7.124;2023-05-10T09:52:59;15.20;99.90
5631;DHT22;2837;50.990;7.124;2023-05-10T09:55:40;15.20;99.90
5631;DHT22;2837;50.990;7.124;2023-05-10T09:58:05;15.20;99.90
5631;DHT22;2837;50.990;7.124;2023-05-10T10:00:40;15.20;99.90
5631;DHT22;2837;50.990;7.124;2023-05-10T10:03:06;15.40;99.90
5631;DHT22;2837;50.990;7.124;2023-05-10T10:05:33;15.20;99.90
5631;DHT22;2837;50.990;7.124;2023-05-10T10:08:02;15.30;99.90
5631;DHT22;2837;50.990;7.124;2023-05-10T10:10:28;15.40;99.90
5631;DHT22;2837;50.990;7.124;2023-05-10T10:12:54;15.80;99.90
5631;DHT22;2837;50.990;7.124;2023-05-10T10:15:21;15.40;99.90
5631;DHT22;2837;50.990;7.124;2023-05-10T10:17:48;15.80;99.90
5631;DHT22;2837;50.990;7.124;2023-05-10T10:20:15;15.50;99.90
5631;DHT22;2837;50.990;7.124;2023-05-10T10:22:41;15.90;99.90
5631;DHT22;2837;50.990;7.124;2023-05-10T10:25:10;15.80;99.90
5631;DHT22;2837;50.990;7.124;2023-05-10T10:27:45;15.70;99.90
5631;DHT22;2837;50.990;7.124;2023-05-10T10:33:39;15.50;99.90
5631;DHT22;2837;50.990;7.124;2023-05-10T10:36:05;15.40;99.90
5631;DHT22;2837;50.990;7.124;2023-05-10T10:50:03;15.40;99.90
5631;DHT22;2837;50.990;7.124;2023-05-10T10:52:44;15.40;99.90
5631;DHT22;2837;50.990;7.124;2023-05-10T10:55:17;15.40;99.90
5631;DHT22;2837;50.990;7.124;2023-05-10T11:02:58;15.40;99.90
5631;DHT22;2837;50.990;7.124;2023-05-10T11:08:00;15.70;99.90
5631;DHT22;2837;50.990;7.124;2023-05-10T11:10:26;15.70;99.90
5631;DHT22;2837;50.990;7.124;2023-05-10T11:12:58;15.80;99.90
5631;DHT22;2837;50.990;7.124;2023-05-10T11:15:30;15.70;99.90
5631;DHT22;2837;50.990;7.124;2023-05-10T11:17:56;16.90;99.90
5631;DHT22;2837;50.990;7.124;2023-05-10T11:20:22;15.80;99.90
5631;DHT22;2837;50.990;7.124;2023-05-10T11:22:54;15.80;99.90
5631;DHT22;2837;50.990;7.124;2023-05-10T11:25:25;15.90;99.90
5631;DHT22;2837;50.990;7.124;2023-05-10T11:27:51;15.90;99.90
5631;DHT22;2837;50.990;7.124;2023-05-10T11:30:17;15.90;99.90
5631;DHT22;2837;50.990;7.124;2023-05-10T11:32:43;15.90;99.90
5631;DHT22;2837;50.990;7.124;2023-05-10T11:35:10;15.90;99.90
5631;DHT22;2837;50.990;7.124;2023-05-10T11:37:37;15.90;99.90
5631;DHT22;2837;50.990;7.124;2023-05-10T11:40:07;15.90;99.90
5631;DHT22;2837;50.990;7.124;2023-05-10T11:42:37;15.90;99.90
5631;DHT22;2837;50.990;7.124;2023-05-10T11:45:02;15.90;99.90
5631;DHT22;2837;50.990;7.124;2023-05-10T11:47:28;15.90;99.90
5631;DHT22;2837;50.990;7.124;2023-05-10T11:49:53;15.90;99.90
5631;DHT22;2837;50.990;7.124;2023-05-10T11:52:19;15.80;99.90
5631;DHT22;2837;50.990;7.124;2023-05-10T11:54:55;15.80;99.90
5631;DHT22;2837;50.990;7.124;2023-05-10T11:57:25;15.70;99.90
5631;DHT22;2837;50.990;7.124;2023-05-10T11:59:54;15.60;99.90
5631;DHT22;2837;50.990;7.124;2023-05-10T12:02:22;15.70;99.90
5631;DHT22;2837;50.990;7.124;2023-05-10T12:04:49;15.70;99.90
5631;DHT22;2837;50.990;7.124;2023-05-10T12:07:15;15.70;99.90
5631;DHT22;2837;50.990;7.124;2023-05-10T12:09:44;15.80;99.90
5631;DHT22;2837;50.990;7.124;2023-05-10T12:12:15;15.80;99.90
5631;DHT22;2837;50.990;7.124;2023-05-10T12:14:40;15.80;99.90
5631;DHT22;2837;50.990;7.124;2023-05-10T12:17:06;15.90;99.90
5631;DHT22;2837;50.990;7.124;2023-05-10T12:19:40;16.00;99.90
5631;DHT22;2837;50.990;7.124;2023-05-10T12:22:06;16.10;99.90
5631;DHT22;2837;50.990;7.124;2023-05-10T12:24:34;16.00;99.90
5631;DHT22;2837;50.990;7.124;2023-05-10T12:27:04;16.00;99.90
5631;DHT22;2837;50.990;7.124;2023-05-10T12:29:30;16.00;99.90
5631;DHT22;2837;50.990;7.124;2023-05-10T12:31:58;16.20;99.90
5631;DHT22;2837;50.990;7.124;2023-05-10T12:34:30;16.00;99.90
5631;DHT22;2837;50.990;7.124;2023-05-10T12:36:56;16.00;99.90
5631;DHT22;2837;50.990;7.124;2023-05-10T12:39:22;16.10;99.90
5631;DHT22;2837;50.990;7.124;2023-05-10T12:41:48;16.10;99.90
5631;DHT22;2837;50.990;7.124;2023-05-10T12:44:14;16.00;99.90
5631;DHT22;2837;50.990;7.124;2023-05-10T12:46:39;16.10;99.90
5631;DHT22;2837;50.990;7.124;2023-05-10T12:49:05;16.10;99.90
5631;DHT22;2837;50.990;7.124;2023-05-10T12:51:30;16.10;99.90
5631;DHT22;2837;50.990;7.124;2023-05-10T12:53:56;16.20;99.90
5631;DHT22;2837;50.990;7.124;2023-05-10T12:56:22;16.30;99.90
5631;DHT22;2837;50.990;7.124;2023-05-10T12:58:47;16.30;99.90
5631;DHT22;2837;50.990;7.124;2023-05-10T13:01:14;16.50;99.90
5631;DHT22;2837;50.990;7.124;2023-05-10T13:03:39;16.30;99.90
5631;DHT22;2837;50.990;7.124;2023-05-10T13:06:05;16.40;99.90
5631;DHT22;2837;50.990;7.124;2023-05-10T13:08:31;16.40;99.90
5631;DHT22;2837;50.990;7.124;2023-05-10T13:11:02;16.50;99.90
5631;DHT22;2837;50.990;7.124;2023-05-10T13:13:27;16.40;99.90
5631;DHT22;2837;50.990;7.124;2023-05-10T13:15:53;16.40;99.90
5631;DHT22;2837;50.990;7.124;2023-05-10T13:18:19;16.50;99.90
5631;DHT22;2837;50.990;7.124;2023-05-10T13:20:44;16.40;99.90
5631;DHT22;2837;50.990;7.124;2023-05-10T13:23:10;16.50;99.90
5631;DHT22;2837;50.990;7.124;2023-05-10T13:25:36;16.60;99.90
5631;DHT22;2837;50.990;7.124;2023-05-10T13:28:01;16.50;99.90
5631;DHT22;2837;50.990;7.124;2023-05-10T13:30:27;16.50;99.90
5631;DHT22;2837;50.990;7.124;2023-05-10T13:32:54;16.60;99.90
5631;DHT22;2837;50.990;7.124;2023-05-10T13:35:20;16.60;99.90
5631;DHT22;2837;50.990;7.124;2023-05-10T13:37:45;16.60;99.90
5631;DHT22;2837;50.990;7.124;2023-05-10T13:40:11;16.60;99.90
5631;DHT22;2837;50.990;7.124;2023-05-10T13:42:37;16.60;99.90
5631;DHT22;2837;50.990;7.124;2023-05-10T13:45:03;16.70;99.90
5631;DHT22;2837;50.990;7.124;2023-05-10T13:47:28;16.60;99.90
5631;DHT22;2837;50.990;7.124;2023-05-10T13:49:54;16.60;99.90
5631;DHT22;2837;50.990;7.124;2023-05-10T13:52:20;16.70;99.90
5631;DHT22;2837;50.990;7.124;2023-05-10T13:54:45;16.70;99.90
5631;DHT22;2837;50.990;7.124;2023-05-10T13:57:11;16.70;99.90
5631;DHT22;2837;50.990;7.124;2023-05-10T13:59:39;16.80;99.90
5631;DHT22;2837;50.990;7.124;2023-05-10T14:02:05;16.70;99.90
5631;DHT22;2837;50.990;7.124;2023-05-10T14:04:30;16.80;99.90
5631;DHT22;2837;50.990;7.124;2023-05-10T14:06:56;16.80;99.90
5631;DHT22;2837;50.990;7.124;2023-05-10T14:09:22;16.80;99.90
5631;DHT22;2837;50.990;7.124;2023-05-10T14:11:47;16.70;99.90
5631;DHT22;2837;50.990;7.124;2023-05-10T14:14:13;16.70;99.90
5631;DHT22;2837;50.990;7.124;2023-05-10T14:16:43;16.70;99.90
5631;DHT22;2837;50.990;7.124;2023-05-10T14:19:09;16.70;99.90
5631;DHT22;2837;50.990;7.124;2023-05-10T14:21:35;16.60;99.90
5631;DHT22;2837;50.990;7.124;2023-05-10T14:24:00;16.60;99.90
5631;DHT22;2837;50.990;7.124;2023-05-10T14:26:26;16.60;99.90
5631;DHT22;2837;50.990;7.124;2023-05-10T14:28:52;16.60;99.90
5631;DHT22;2837;50.990;7.124;2023-05-10T14:31:18;16.60;99.90
5631;DHT22;2837;50.990;7.124;2023-05-10T14:33:46;16.40;99.90
5631;DHT22;2837;50.990;7.124;2023-05-10T14:36:12;16.50;99.90
5631;DHT22;2837;50.990;7.124;2023-05-10T14:38:37;16.50;99.90
5631;DHT22;2837;50.990;7.124;2023-05-10T14:41:03;16.70;99.90
5631;DHT22;2837;50.990;7.124;2023-05-10T14:43:29;16.50;99.90
5631;DHT22;2837;50.990;7.124;2023-05-10T14:45:55;17.20;99.90
5631;DHT22;2837;50.990;7.124;2023-05-10T14:48:21;16.50;99.90
5631;DHT22;2837;50.990;7.124;2023-05-10T14:50:46;16.60;99.90
5631;DHT22;2837;50.990;7.124;2023-05-10T14:53:12;16.50;99.90
5631;DHT22;2837;50.990;7.124;2023-05-10T14:55:38;16.60;99.90
5631;DHT22;2837;50.990;7.124;2023-05-10T14:58:04;17.20;99.90
5631;DHT22;2837;50.990;7.124;2023-05-10T15:00:30;17.20;99.90
5631;DHT22;2837;50.990;7.124;2023-05-10T15:02:56;16.40;99.90
5631;DHT22;2837;50.990;7.124;2023-05-10T15:05:22;16.50;99.90
5631;DHT22;2837;50.990;7.124;2023-05-10T15:07:48;16.60;99.90
5631;DHT22;2837;50.990;7.124;2023-05-10T15:10:14;16.40;99.90
5631;DHT22;2837;50.990;7.124;2023-05-10T15:12:40;16.30;99.90
5631;DHT22;2837;50.990;7.124;2023-05-10T15:15:06;16.50;99.90
5631;DHT22;2837;50.990;7.124;2023-05-10T15:17:32;16.30;99.90
5631;DHT22;2837;50.990;7.124;2023-05-10T15:19:58;16.40;99.90
5631;DHT22;2837;50.990;7.124;2023-05-10T15:22:24;16.30;99.90
5631;DHT22;2837;50.990;7.124;2023-05-10T15:24:49;16.30;99.90
5631;DHT22;2837;50.990;7.124;2023-05-10T15:27:15;16.50;99.90
5631;DHT22;2837;50.990;7.124;2023-05-10T15:29:41;16.40;99.90
5631;DHT22;2837;50.990;7.124;2023-05-10T15:32:06;16.40;99.90
5631;DHT22;2837;50.990;7.124;2023-05-10T15:34:32;16.40;99.90
5631;DHT22;2837;50.990;7.124;2023-05-10T15:36:58;16.20;99.90
5631;DHT22;2837;50.990;7.124;2023-05-10T15:39:23;16.30;99.90
5631;DHT22;2837;50.990;7.124;2023-05-10T15:41:49;16.30;99.90
5631;DHT22;2837;50.990;7.124;2023-05-10T15:44:15;16.20;99.90
5631;DHT22;2837;50.990;7.124;2023-05-10T15:46:40;16.20;99.90
5631;DHT22;2837;50.990;7.124;2023-05-10T15:49:06;16.10;99.90
5631;DHT22;2837;50.990;7.124;2023-05-10T15:51:31;16.10;99.90
5631;DHT22;2837;50.990;7.124;2023-05-10T15:53:58;16.90;99.90
5631;DHT22;2837;50.990;7.124;2023-05-10T15:56:24;16.00;99.90
5631;DHT22;2837;50.990;7.124;2023-05-10T15:58:49;15.90;99.90
5631;DHT22;2837;50.990;7.124;2023-05-10T16:01:15;15.90;99.90
5631;DHT22;2837;50.990;7.124;2023-05-10T16:03:41;15.80;99.90
5631;DHT22;2837;50.990;7.124;2023-05-10T16:06:07;15.80;99.90
5631;DHT22;2837;50.990;7.124;2023-05-10T16:08:33;15.70;99.90
5631;DHT22;2837;50.990;7.124;2023-05-10T16:10:59;15.80;99.90
5631;DHT22;2837;50.990;7.124;2023-05-10T16:13:25;15.70;99.90
5631;DHT22;2837;50.990;7.124;2023-05-10T16:15:50;15.60;99.90
5631;DHT22;2837;50.990;7.124;2023-05-10T16:18:16;15.60;99.90
5631;DHT22;2837;50.990;7.124;2023-05-10T16:20:43;15.60;99.90
5631;DHT22;2837;50.990;7.124;2023-05-10T16:23:08;15.70;99.90
5631;DHT22;2837;50.990;7.124;2023-05-10T16:25:34;15.60;99.90
5631;DHT22;2837;50.990;7.124;2023-05-10T16:28:00;15.60;99.90
5631;DHT22;2837;50.990;7.124;2023-05-10T16:30:26;16.40;99.90
5631;DHT22;2837;50.990;7.124;2023-05-10T16:32:57;15.60;99.90
5631;DHT22;2837;50.990;7.124;2023-05-10T16:35:23;16.40;99.90
5631;DHT22;2837;50.990;7.124;2023-05-10T16:37:52;15.50;99.90
5631;DHT22;2837;50.990;7.124;2023-05-10T16:40:18;16.00;99.90
5631;DHT22;2837;50.990;7.124;2023-05-10T16:42:44;15.50;99.90
5631;DHT22;2837;50.990;7.124;2023-05-10T16:45:10;15.50;99.90
5631;DHT22;2837;50.990;7.124;2023-05-10T16:47:36;15.50;99.90
5631;DHT22;2837;50.990;7.124;2023-05-10T16:50:04;15.50;99.90
5631;DHT22;2837;50.990;7.124;2023-05-10T16:52:30;15.50;99.90
5631;DHT22;2837;50.990;7.124;2023-05-10T16:54:57;15.50;99.90
5631;DHT22;2837;50.990;7.124;2023-05-10T16:57:22;15.50;99.90
5631;DHT22;2837;50.990;7.124;2023-05-10T16:59:48;15.50;99.90
5631;DHT22;2837;50.990;7.124;2023-05-10T17:02:14;16.00;99.90
5631;DHT22;2837;50.990;7.124;2023-05-10T17:04:41;16.20;99.90
5631;DHT22;2837;50.990;7.124;2023-05-10T17:07:06;15.60;99.90
5631;DHT22;2837;50.990;7.124;2023-05-10T17:09:33;16.10;99.90
5631;DHT22;2837;50.990;7.124;2023-05-10T17:11:58;15.40;99.90
5631;DHT22;2837;50.990;7.124;2023-05-10T17:14:24;15.40;99.90
5631;DHT22;2837;50.990;7.124;2023-05-10T17:16:50;15.40;99.90
5631;DHT22;2837;50.990;7.124;2023-05-10T17:19:17;15.40;99.90
5631;DHT22;2837;50.990;7.124;2023-05-10T17:21:42;15.40;99.90
5631;DHT22;2837;50.990;7.124;2023-05-10T17:24:08;15.40;99.90
5631;DHT22;2837;50.990;7.124;2023-05-10T17:26:34;15.40;99.90
5631;DHT22;2837;50.990;7.124;2023-05-10T17:28:59;15.30;99.90
5631;DHT22;2837;50.990;7.124;2023-05-10T17:31:25;15.50;99.90
5631;DHT22;2837;50.990;7.124;2023-05-10T17:33:51;15.30;99.90
5631;DHT22;2837;50.990;7.124;2023-05-10T17:36:16;15.30;99.90
5631;DHT22;2837;50.990;7.124;2023-05-10T17:38:42;15.50;99.90
5631;DHT22;2837;50.990;7.124;2023-05-10T17:41:07;15.30;99.90
5631;DHT22;2837;50.990;7.124;2023-05-10T17:43:33;15.20;99.90
5631;DHT22;2837;50.990;7.124;2023-05-10T17:45:58;15.30;99.90
5631;DHT22;2837;50.990;7.124;2023-05-10T17:48:24;15.20;99.90
5631;DHT22;2837;50.990;7.124;2023-05-10T17:50:50;15.20;99.90
5631;DHT22;2837;50.990;7.124;2023-05-10T17:53:16;15.20;99.90
5631;DHT22;2837;50.990;7.124;2023-05-10T17:55:42;15.60;99.90
5631;DHT22;2837;50.990;7.124;2023-05-10T17:58:10;15.20;99.90
5631;DHT22;2837;50.990;7.124;2023-05-10T18:00:36;15.20;99.90
5631;DHT22;2837;50.990;7.124;2023-05-10T18:03:03;15.30;99.90
5631;DHT22;2837;50.990;7.124;2023-05-10T18:05:28;15.20;99.90
5631;DHT22;2837;50.990;7.124;2023-05-10T18:07:54;15.30;99.90
5631;DHT22;2837;50.990;7.124;2023-05-10T18:10:21;15.20;99.90
5631;DHT22;2837;50.990;7.124;2023-05-10T18:12:46;15.20;99.90
5631;DHT22;2837;50.990;7.124;2023-05-10T18:15:12;15.20;99.90
5631;DHT22;2837;50.990;7.124;2023-05-10T18:17:38;15.10;99.90
5631;DHT22;2837;50.990;7.124;2023-05-10T18:20:04;15.10;99.90
5631;DHT22;2837;50.990;7.124;2023-05-10T18:22:30;15.10;99.90
5631;DHT22;2837;50.990;7.124;2023-05-10T18:24:55;15.10;99.90
5631;DHT22;2837;50.990;7.124;2023-05-10T18:27:22;15.20;99.90
5631;DHT22;2837;50.990;7.124;2023-05-10T18:29:48;15.10;99.90
5631;DHT22;2837;50.990;7.124;2023-05-10T18:32:13;15.10;99.90
5631;DHT22;2837;50.990;7.124;2023-05-10T18:34:39;15.00;99.90
5631;DHT22;2837;50.990;7.124;2023-05-10T18:37:04;15.10;99.90
5631;DHT22;2837;50.990;7.124;2023-05-10T18:39:32;15.00;99.90
5631;DHT22;2837;50.990;7.124;2023-05-10T18:41:58;15.10;99.90
5631;DHT22;2837;50.990;7.124;2023-05-10T18:44:23;14.90;99.90
5631;DHT22;2837;50.990;7.124;2023-05-10T18:46:51;14.90;99.90
5631;DHT22;2837;50.990;7.124;2023-05-10T18:49:18;14.90;99.90
5631;DHT22;2837;50.990;7.124;2023-05-10T18:51:44;14.80;99.90
5631;DHT22;2837;50.990;7.124;2023-05-10T18:54:10;14.80;99.90
5631;DHT22;2837;50.990;7.124;2023-05-10T18:56:35;14.80;99.90
5631;DHT22;2837;50.990;7.124;2023-05-10T18:59:01;14.80;99.90
5631;DHT22;2837;50.990;7.124;2023-05-10T19:01:27;14.80;99.90
5631;DHT22;2837;50.990;7.124;2023-05-10T19:03:53;14.80;99.90
5631;DHT22;2837;50.990;7.124;2023-05-10T19:06:18;15.30;99.90
5631;DHT22;2837;50.990;7.124;2023-05-10T19:08:44;15.60;99.90
5631;DHT22;2837;50.990;7.124;2023-05-10T19:11:10;14.80;99.90
5631;DHT22;2837;50.990;7.124;2023-05-10T19:13:35;14.90;99.90
5631;DHT22;2837;50.990;7.124;2023-05-10T19:16:08;14.80;99.90
5631;DHT22;2837;50.990;7.124;2023-05-10T19:18:34;14.80;99.90
5631;DHT22;2837;50.990;7.124;2023-05-10T19:21:00;14.90;99.90
5631;DHT22;2837;50.990;7.124;2023-05-10T19:23:30;14.80;99.90
5631;DHT22;2837;50.990;7.124;2023-05-10T19:25:55;15.00;99.90
5631;DHT22;2837;50.990;7.124;2023-05-10T19:28:21;14.90;99.90
5631;DHT22;2837;50.990;7.124;2023-05-10T19:30:47;15.00;99.90
5631;DHT22;2837;50.990;7.124;2023-05-10T19:33:15;15.00;99.90
5631;DHT22;2837;50.990;7.124;2023-05-10T19:35:41;14.90;99.90
5631;DHT22;2837;50.990;7.124;2023-05-10T19:38:07;14.70;99.90
5631;DHT22;2837;50.990;7.124;2023-05-10T19:40:32;14.90;99.90
5631;DHT22;2837;50.990;7.124;2023-05-10T19:42:58;14.80;99.90
5631;DHT22;2837;50.990;7.124;2023-05-10T19:45:25;14.80;99.90
5631;DHT22;2837;50.990;7.124;2023-05-10T19:47:51;14.70;99.90
5631;DHT22;2837;50.990;7.124;2023-05-10T19:50:17;14.80;99.90
5631;DHT22;2837;50.990;7.124;2023-05-10T19:52:42;14.80;99.90
5631;DHT22;2837;50.990;7.124;2023-05-10T19:55:09;14.80;99.90
5631;DHT22;2837;50.990;7.124;2023-05-10T19:57:35;14.70;99.90
5631;DHT22;2837;50.990;7.124;2023-05-10T20:00:01;14.70;99.90
5631;DHT22;2837;50.990;7.124;2023-05-10T20:02:28;14.80;99.90
5631;DHT22;2837;50.990;7.124;2023-05-10T20:04:54;14.80;99.90
5631;DHT22;2837;50.990;7.124;2023-05-10T20:07:19;14.70;99.90
5631;DHT22;2837;50.990;7.124;2023-05-10T20:09:45;14.80;99.90
5631;DHT22;2837;50.990;7.124;2023-05-10T20:12:10;14.80;99.90
5631;DHT22;2837;50.990;7.124;2023-05-10T20:14:37;14.80;99.90
5631;DHT22;2837;50.990;7.124;2023-05-10T20:17:02;14.80;99.90
5631;DHT22;2837;50.990;7.124;2023-05-10T20:19:28;14.80;99.90
5631;DHT22;2837;50.990;7.124;2023-05-10T20:21:53;14.80;99.90
5631;DHT22;2837;50.990;7.124;2023-05-10T20:24:20;14.80;99.90
5631;DHT22;2837;50.990;7.124;2023-05-10T20:26:46;14.70;99.90
5631;DHT22;2837;50.990;7.124;2023-05-10T20:29:11;14.80;99.90
5631;DHT22;2837;50.990;7.124;2023-05-10T20:31:37;14.80;99.90
5631;DHT22;2837;50.990;7.124;2023-05-10T20:34:03;14.60;99.90
5631;DHT22;2837;50.990;7.124;2023-05-10T20:36:28;14.90;99.90
5631;DHT22;2837;50.990;7.124;2023-05-10T20:38:55;15.20;99.90
5631;DHT22;2837;50.990;7.124;2023-05-10T20:41:21;14.80;99.90
5631;DHT22;2837;50.990;7.124;2023-05-10T20:43:46;14.60;99.90
5631;DHT22;2837;50.990;7.124;2023-05-10T20:46:12;15.10;99.90
5631;DHT22;2837;50.990;7.124;2023-05-10T20:48:38;14.70;99.90
5631;DHT22;2837;50.990;7.124;2023-05-10T20:51:03;14.80;99.90
5631;DHT22;2837;50.990;7.124;2023-05-10T20:53:29;15.40;99.90
5631;DHT22;2837;50.990;7.124;2023-05-10T20:55:54;15.00;99.90
5631;DHT22;2837;50.990;7.124;2023-05-10T20:58:20;14.60;99.90
